createdAt,value
2018-01-16T00:00:08.650Z,-1.72
2018-01-16T00:02:36.406Z,-1.67
2018-01-16T00:05:04.152Z,-1.64
2018-01-16T00:07:31.843Z,-1.59
2018-01-16T00:09:59.638Z,-1.61
2018-01-16T00:12:27.370Z,-1.59
2018-01-16T00:14:55.053Z,-1.62
2018-01-16T00:17:22.813Z,-1.59
2018-01-16T00:19:50.526Z,-1.59
2018-01-16T00:22:29.970Z,-1.62
2018-01-16T00:24:57.672Z,-1.61
2018-01-16T00:27:25.422Z,-1.66
2018-01-16T00:29:53.119Z,-1.63
2018-01-16T00:32:20.867Z,-1.64
2018-01-16T00:34:48.622Z,-1.68
2018-01-16T00:37:16.383Z,-1.63
2018-01-16T00:39:44.050Z,-1.60
2018-01-16T00:42:11.844Z,-1.59
2018-01-16T00:44:39.637Z,-1.59
2018-01-16T00:47:07.309Z,-1.79
2018-01-16T00:49:35.445Z,-1.85
2018-01-16T00:52:03.266Z,-1.75
2018-01-16T00:54:31.040Z,-1.79
2018-01-16T00:56:58.707Z,-1.84
2018-01-16T00:59:26.456Z,-1.80
2018-01-16T01:01:54.145Z,-1.86
2018-01-16T01:04:21.866Z,-1.83
2018-01-16T01:06:49.539Z,-1.89
2018-01-16T01:09:17.268Z,-1.85
2018-01-16T01:11:44.939Z,-1.83
2018-01-16T01:14:12.677Z,-1.82
2018-01-16T01:16:40.402Z,-1.83
2018-01-16T01:19:08.144Z,-1.80
2018-01-16T01:21:35.857Z,-1.92
2018-01-16T01:24:03.605Z,-1.94
2018-01-16T01:26:31.351Z,-1.84
2018-01-16T01:28:59.062Z,-1.85
2018-01-16T01:31:26.800Z,-2.03
2018-01-16T01:33:54.522Z,-2.07
2018-01-16T01:36:24.939Z,-1.97
2018-01-16T01:38:52.694Z,-1.96
2018-01-16T01:41:20.412Z,-2.01
2018-01-16T01:43:48.102Z,-1.98
2018-01-16T01:46:15.863Z,-1.95
2018-01-16T01:48:43.623Z,-1.89
2018-01-16T01:51:11.300Z,-2.05
2018-01-16T01:53:39.018Z,-2.04
2018-01-16T01:56:06.713Z,-2.03
2018-01-16T01:58:34.433Z,-1.98
2018-01-16T02:01:02.130Z,-1.88
2018-01-16T02:03:30.209Z,-1.93
2018-01-16T02:05:57.913Z,-1.98
2018-01-16T02:08:25.620Z,-1.87
2018-01-16T02:10:53.356Z,-1.81
2018-01-16T02:13:21.155Z,-1.80
2018-01-16T02:15:48.863Z,-1.75
2018-01-16T02:18:16.561Z,-1.73
2018-01-16T02:20:44.284Z,-1.72
2018-01-16T02:23:11.980Z,-1.80
2018-01-16T02:25:39.708Z,-1.82
2018-01-16T02:28:07.441Z,-1.78
2018-01-16T02:30:35.267Z,-1.71
2018-01-16T02:33:02.985Z,-1.66
2018-01-16T02:35:30.719Z,-1.69
2018-01-16T02:37:58.434Z,-1.76
2018-01-16T02:40:26.206Z,-1.81
2018-01-16T02:42:53.957Z,-1.66
2018-01-16T02:45:21.795Z,-1.76
2018-01-16T02:47:49.574Z,-1.67
2018-01-16T02:50:17.408Z,-1.62
2018-01-16T02:52:45.167Z,-1.58
2018-01-16T02:55:12.903Z,-1.53
2018-01-16T02:57:40.626Z,-1.43
2018-01-16T03:00:08.390Z,-1.37
2018-01-16T03:02:36.119Z,-1.55
2018-01-16T03:05:03.904Z,-1.60
2018-01-16T03:07:31.621Z,-1.55
2018-01-16T03:09:59.333Z,-1.55
2018-01-16T03:12:27.093Z,-1.57
2018-01-16T03:14:54.933Z,-1.60
2018-01-16T03:17:22.679Z,-1.55
2018-01-16T03:19:50.446Z,-1.49
2018-01-16T03:22:18.152Z,-1.51
2018-01-16T03:24:45.874Z,-1.55
2018-01-16T03:27:13.712Z,-1.54
2018-01-16T03:29:41.395Z,-1.50
2018-01-16T03:32:09.064Z,-1.50
2018-01-16T03:34:36.807Z,-1.52
2018-01-16T03:37:04.486Z,-1.58
2018-01-16T03:39:32.280Z,-1.51
2018-01-16T03:42:00.035Z,-1.46
2018-01-16T03:44:27.713Z,-1.43
2018-01-16T03:46:55.611Z,-1.38
2018-01-16T03:49:23.280Z,-1.40
2018-01-16T03:51:50.946Z,-1.43
2018-01-16T03:54:18.689Z,-1.42
2018-01-16T03:56:46.420Z,-1.36
2018-01-16T03:59:14.223Z,-1.33
2018-01-16T04:01:41.915Z,-1.41
2018-01-16T04:04:09.595Z,-1.37
2018-01-16T04:06:37.343Z,-1.49
2018-01-16T04:09:05.167Z,-1.53
2018-01-16T04:11:32.839Z,-1.51
2018-01-16T04:14:00.627Z,-1.47
2018-01-16T04:16:28.408Z,-1.46
2018-01-16T04:18:56.130Z,-1.52
2018-01-16T04:21:23.912Z,-1.49
2018-01-16T04:23:51.593Z,-1.46
2018-01-16T04:26:19.311Z,-1.53
2018-01-16T04:28:48.028Z,-1.56
2018-01-16T04:31:15.749Z,-1.58
2018-01-16T04:33:43.473Z,-1.57
2018-01-16T04:36:11.156Z,-1.47
2018-01-16T04:38:38.884Z,-1.46
2018-01-16T04:41:06.594Z,-1.40
2018-01-16T04:43:34.285Z,-1.40
2018-01-16T04:46:02.016Z,-1.36
2018-01-16T04:48:29.760Z,-1.31
2018-01-16T04:50:57.484Z,-1.34
2018-01-16T04:53:25.347Z,-1.28
2018-01-16T04:55:53.132Z,-1.30
2018-01-16T04:58:20.811Z,-1.33
2018-01-16T05:00:48.548Z,-1.67
2018-01-16T05:03:16.285Z,-1.78
2018-01-16T05:05:43.994Z,-1.79
2018-01-16T05:08:11.686Z,-1.75
2018-01-16T05:10:39.398Z,-1.63
2018-01-16T05:13:07.060Z,-1.56
2018-01-16T05:15:34.775Z,-1.57
2018-01-16T05:18:02.493Z,-1.57
2018-01-16T05:20:30.311Z,-1.56
2018-01-16T05:22:58.022Z,-1.51
2018-01-16T05:25:25.801Z,-1.51
2018-01-16T05:27:53.671Z,-1.52
2018-01-16T05:30:21.372Z,-1.53
2018-01-16T05:32:49.077Z,-1.52
2018-01-16T05:35:16.853Z,-1.53
2018-01-16T05:37:44.579Z,-1.51
2018-01-16T05:40:12.430Z,-1.46
2018-01-16T05:42:40.195Z,-1.42
2018-01-16T05:45:07.945Z,-1.41
2018-01-16T05:47:35.752Z,-1.43
2018-01-16T05:50:03.573Z,-1.46
2018-01-16T05:52:31.463Z,-1.38
2018-01-16T05:54:59.218Z,-1.26
2018-01-16T05:57:27.013Z,-1.41
2018-01-16T05:59:54.693Z,-1.39
2018-01-16T06:02:22.437Z,-1.46
2018-01-16T06:04:50.171Z,-1.51
2018-01-16T06:07:17.886Z,-1.43
2018-01-16T06:09:45.566Z,-1.42
2018-01-16T06:12:13.260Z,-1.38
2018-01-16T06:14:41.010Z,-1.40
2018-01-16T06:17:08.806Z,-1.39
2018-01-16T06:19:36.580Z,-1.28
2018-01-16T06:22:04.278Z,-1.38
2018-01-16T06:24:32.043Z,-1.37
2018-01-16T06:26:59.786Z,-1.45
2018-01-16T06:29:27.534Z,-1.50
2018-01-16T06:31:55.243Z,-1.43
2018-01-16T06:34:22.963Z,-1.53
2018-01-16T06:36:50.666Z,-1.49
2018-01-16T06:39:18.410Z,-1.47
2018-01-16T06:41:46.087Z,-1.60
2018-01-16T06:44:13.874Z,-1.67
2018-01-16T06:46:42.699Z,-1.54
2018-01-16T06:49:10.471Z,-1.48
2018-01-16T06:51:38.191Z,-1.39
2018-01-16T06:54:05.979Z,-1.32
2018-01-16T06:56:33.723Z,-1.44
2018-01-16T06:59:01.441Z,-1.39
2018-01-16T07:01:29.186Z,-1.40
2018-01-16T07:03:56.967Z,-1.42
2018-01-16T07:06:24.809Z,-1.30
2018-01-16T07:08:52.543Z,-1.23
2018-01-16T07:11:20.278Z,-1.20
2018-01-16T07:13:48.008Z,-1.18
2018-01-16T07:16:15.783Z,-1.13
2018-01-16T07:18:43.503Z,-1.16
2018-01-16T07:21:11.263Z,-1.08
2018-01-16T07:23:38.996Z,-1.16
2018-01-16T07:26:06.815Z,-1.26
2018-01-16T07:28:34.554Z,-1.31
2018-01-16T07:31:02.276Z,-1.16
2018-01-16T07:33:30.032Z,-1.07
2018-01-16T07:35:57.825Z,-0.97
2018-01-16T07:38:25.528Z,-0.79
2018-01-16T07:40:53.297Z,-0.39
2018-01-16T07:43:21.065Z,1.83
2018-01-16T07:45:48.772Z,1.19
2018-01-16T07:48:16.509Z,-0.03
2018-01-16T07:50:44.226Z,0.56
2018-01-16T07:53:11.988Z,1.45
2018-01-16T07:55:40.106Z,1.54
2018-01-16T07:58:08.010Z,1.29
2018-01-16T08:00:35.734Z,0.87
2018-01-16T08:03:03.451Z,2.05
2018-01-16T08:05:31.139Z,3.26
2018-01-16T08:07:58.892Z,4.08
2018-01-16T08:10:26.568Z,3.59
2018-01-16T08:12:54.397Z,3.90
2018-01-16T08:15:22.062Z,3.67
2018-01-16T08:17:50.347Z,2.97
2018-01-16T08:20:18.498Z,2.74
2018-01-16T08:22:46.229Z,2.51
2018-01-16T08:25:14.128Z,3.37
2018-01-16T08:27:41.834Z,3.36
2018-01-16T08:30:09.599Z,3.23
2018-01-16T08:32:38.087Z,2.19
2018-01-16T08:35:05.782Z,3.23
2018-01-16T08:37:33.547Z,3.35
2018-01-16T08:40:01.372Z,3.09
2018-01-16T08:42:29.190Z,3.64
2018-01-16T08:44:56.912Z,3.56
2018-01-16T08:47:24.677Z,4.54
2018-01-16T08:49:52.376Z,4.78
2018-01-16T08:52:20.111Z,4.50
2018-01-16T08:54:47.941Z,5.39
2018-01-16T08:57:15.641Z,3.66
2018-01-16T08:59:43.411Z,3.79
2018-01-16T09:02:11.159Z,4.73
2018-01-16T09:04:38.849Z,3.44
2018-01-16T09:07:06.517Z,3.42
2018-01-16T09:09:34.266Z,3.15
2018-01-16T09:12:01.978Z,2.40
2018-01-16T09:14:29.747Z,2.63
2018-01-16T09:16:57.482Z,2.92
2018-01-16T09:19:25.242Z,2.21
2018-01-16T09:21:53.037Z,2.38
2018-01-16T09:24:20.791Z,2.39
2018-01-16T09:26:48.975Z,2.31
2018-01-16T09:29:16.663Z,2.83
2018-01-16T09:31:44.455Z,2.97
2018-01-16T09:34:12.131Z,2.81
2018-01-16T09:36:39.870Z,2.88
2018-01-16T09:39:07.588Z,2.85
2018-01-16T09:41:35.309Z,1.84
2018-01-16T09:44:03.228Z,1.43
2018-01-16T09:46:30.928Z,1.52
2018-01-16T09:48:58.687Z,1.80
2018-01-16T09:51:26.471Z,2.11
2018-01-16T09:53:54.250Z,2.46
2018-01-16T09:56:21.968Z,2.76
2018-01-16T09:58:49.714Z,2.81
2018-01-16T10:01:17.395Z,2.58
2018-01-16T10:03:45.137Z,2.85
2018-01-16T10:06:12.914Z,3.03
2018-01-16T10:08:40.674Z,2.84
2018-01-16T10:11:08.389Z,2.53
2018-01-16T10:13:36.831Z,2.65
2018-01-16T10:16:04.588Z,2.75
2018-01-16T10:18:32.356Z,2.53
2018-01-16T10:21:00.121Z,2.68
2018-01-16T10:23:27.800Z,3.03
2018-01-16T10:25:55.555Z,2.62
2018-01-16T10:28:23.812Z,2.31
2018-01-16T10:30:51.640Z,2.16
2018-01-16T10:33:19.399Z,2.33
2018-01-16T10:38:21.088Z,2.17
2018-01-16T10:40:49.803Z,2.03
2018-01-16T10:43:17.590Z,2.30
2018-01-16T10:45:45.342Z,2.74
2018-01-16T10:48:13.089Z,2.86
2018-01-16T10:50:40.840Z,2.72
2018-01-16T10:53:08.597Z,2.72
2018-01-16T10:55:36.416Z,2.16
2018-01-16T10:58:04.208Z,2.04
2018-01-16T11:00:32.002Z,2.11
2018-01-16T11:02:59.714Z,2.12
2018-01-16T11:05:27.483Z,2.42
2018-01-16T11:07:55.380Z,2.50
2018-01-16T11:10:23.090Z,2.37
2018-01-16T11:12:50.794Z,2.31
2018-01-16T11:15:18.581Z,2.31
2018-01-16T11:17:46.330Z,2.16
2018-01-16T11:20:14.082Z,2.02
2018-01-16T11:22:41.883Z,2.04
2018-01-16T11:25:09.638Z,2.05
2018-01-16T11:27:37.418Z,2.05
2018-01-16T11:30:05.183Z,1.82
2018-01-16T11:32:33.006Z,1.83
2018-01-16T11:35:00.821Z,1.80
2018-01-16T11:37:28.491Z,2.00
2018-01-16T11:39:56.243Z,2.16
2018-01-16T11:42:23.954Z,2.43
2018-01-16T11:44:51.726Z,2.78
2018-01-16T11:47:19.478Z,2.67
2018-01-16T11:49:47.504Z,2.68
2018-01-16T11:52:15.225Z,2.67
2018-01-16T11:54:42.968Z,2.57
2018-01-16T11:57:10.757Z,2.53
2018-01-16T11:59:39.393Z,2.55
2018-01-16T12:02:07.185Z,2.55
2018-01-16T12:04:34.963Z,2.71
2018-01-16T12:07:02.746Z,2.75
2018-01-16T12:09:30.571Z,2.34
2018-01-16T12:11:58.431Z,1.94
2018-01-16T12:14:26.172Z,1.98
2018-01-16T12:16:53.949Z,2.02
2018-01-16T12:19:21.736Z,1.93
2018-01-16T12:21:50.371Z,1.93
2018-01-16T12:24:18.266Z,1.96
2018-01-16T12:26:46.031Z,2.06
2018-01-16T12:29:13.803Z,1.55
2018-01-16T12:31:42.422Z,1.59
2018-01-16T12:34:10.198Z,1.65
2018-01-16T12:36:37.901Z,1.99
2018-01-16T12:39:05.711Z,1.83
2018-01-16T12:41:33.406Z,1.77
2018-01-16T12:44:01.172Z,1.78
2018-01-16T12:46:28.883Z,1.76
2018-01-16T12:48:56.601Z,1.81
2018-01-16T12:51:24.384Z,1.80
2018-01-16T12:53:52.184Z,1.88
2018-01-16T12:56:19.966Z,1.96
2018-01-16T12:58:47.667Z,1.95
2018-01-16T13:01:15.388Z,1.93
2018-01-16T13:03:43.368Z,1.89
2018-01-16T13:06:11.149Z,1.85
2018-01-16T13:08:38.890Z,1.80
2018-01-16T13:11:07.010Z,1.68
2018-01-16T13:13:34.768Z,1.56
2018-01-16T13:16:02.515Z,1.49
2018-01-16T13:18:30.251Z,1.40
2018-01-16T13:20:58.009Z,1.36
2018-01-16T13:23:25.726Z,1.37
2018-01-16T13:25:53.450Z,1.56
2018-01-16T13:28:21.205Z,1.77
2018-01-16T13:30:49.077Z,1.80
2018-01-16T13:33:16.772Z,1.54
2018-01-16T13:35:44.475Z,1.71
2018-01-16T13:38:12.250Z,1.62
2018-01-16T13:40:39.986Z,1.62
2018-01-16T13:43:07.807Z,1.56
2018-01-16T13:45:35.657Z,1.57
2018-01-16T13:48:03.405Z,1.48
2018-01-16T13:50:31.203Z,1.58
2018-01-16T13:52:58.993Z,1.61
2018-01-16T13:55:26.767Z,1.35
2018-01-16T13:57:54.623Z,1.19
2018-01-16T14:00:22.346Z,1.19
2018-01-16T14:02:50.096Z,1.44
2018-01-16T14:05:17.861Z,1.48
2018-01-16T14:07:45.714Z,1.53
2018-01-16T14:10:13.426Z,1.61
2018-01-16T14:12:41.176Z,1.68
2018-01-16T14:15:08.957Z,1.52
2018-01-16T14:17:36.767Z,1.42
2018-01-16T14:20:04.601Z,1.29
2018-01-16T14:22:32.391Z,1.37
2018-01-16T14:25:00.165Z,1.48
2018-01-16T14:27:27.868Z,1.51
2018-01-16T14:29:55.633Z,1.42
2018-01-16T14:32:23.423Z,1.35
2018-01-16T14:34:52.212Z,1.25
2018-01-16T14:37:20.012Z,1.44
2018-01-16T14:39:47.767Z,1.46
2018-01-16T14:42:15.507Z,1.45
2018-01-16T14:44:43.337Z,1.40
2018-01-16T14:47:11.338Z,1.39
2018-01-16T14:49:39.791Z,1.37
2018-01-16T14:52:08.714Z,1.29
2018-01-16T14:54:37.764Z,1.29
2018-01-16T14:57:06.437Z,1.35
2018-01-16T14:59:34.293Z,1.36
2018-01-16T15:02:01.993Z,1.30
2018-01-16T15:04:29.826Z,1.34
2018-01-16T15:06:57.532Z,1.38
2018-01-16T15:09:25.320Z,1.36
2018-01-16T15:11:53.032Z,1.41
2018-01-16T15:14:20.870Z,1.44
2018-01-16T15:16:48.618Z,1.46
2018-01-16T15:19:16.366Z,1.35
2018-01-16T15:21:44.131Z,1.30
2018-01-16T15:24:11.893Z,1.34
2018-01-16T15:26:39.646Z,1.16
2018-01-16T15:29:07.483Z,1.11
2018-01-16T15:31:35.449Z,1.08
2018-01-16T15:34:03.308Z,1.09
2018-01-16T15:36:31.076Z,1.15
2018-01-16T15:38:58.797Z,1.19
2018-01-16T15:41:26.584Z,1.21
2018-01-16T15:43:55.815Z,1.24
2018-01-16T15:46:23.511Z,1.24
2018-01-16T15:48:51.206Z,1.24
2018-01-16T15:51:19.001Z,1.30
2018-01-16T15:53:46.727Z,1.18
2018-01-16T15:56:14.505Z,1.13
2018-01-16T15:58:42.353Z,1.05
2018-01-16T16:01:10.333Z,1.01
2018-01-16T16:03:38.213Z,1.07
2018-01-16T16:06:06.098Z,1.15
2018-01-16T16:08:34.065Z,1.13
2018-01-16T16:11:01.800Z,1.21
2018-01-16T16:13:29.643Z,1.30
2018-01-16T16:15:58.226Z,1.33
2018-01-16T16:18:26.089Z,1.28
2018-01-16T16:20:53.857Z,1.13
2018-01-16T16:23:21.651Z,1.15
2018-01-16T16:25:50.505Z,1.23
2018-01-16T16:28:18.298Z,1.24
2018-01-16T16:30:46.238Z,1.21
2018-01-16T16:33:14.017Z,1.21
2018-01-16T16:35:42.078Z,1.17
2018-01-16T16:38:09.854Z,1.10
2018-01-16T16:40:37.670Z,1.25
2018-01-16T16:43:05.463Z,1.51
2018-01-16T16:45:33.280Z,1.43
2018-01-16T16:48:01.159Z,1.31
2018-01-16T16:50:28.936Z,1.16
2018-01-16T16:52:57.859Z,0.97
2018-01-16T16:55:25.686Z,0.97
2018-01-16T16:57:53.548Z,0.89
2018-01-16T17:00:21.354Z,0.92
2018-01-16T17:02:49.179Z,0.98
2018-01-16T17:05:16.975Z,1.07
2018-01-16T17:07:44.790Z,0.94
2018-01-16T17:10:12.549Z,0.99
2018-01-16T17:12:40.468Z,1.08
2018-01-16T17:15:08.254Z,1.08
2018-01-16T17:17:36.101Z,1.03
2018-01-16T17:20:03.813Z,1.03
2018-01-16T17:22:31.498Z,1.15
2018-01-16T17:24:59.313Z,1.23
2018-01-16T17:27:27.004Z,1.24
2018-01-16T17:29:54.836Z,1.27
2018-01-16T17:32:22.629Z,1.29
2018-01-16T17:34:50.479Z,1.25
2018-01-16T17:37:18.225Z,1.27
2018-01-16T17:39:46.069Z,1.31
2018-01-16T17:42:14.648Z,1.30
2018-01-16T17:44:42.455Z,1.39
2018-01-16T17:47:10.232Z,1.47
2018-01-16T17:49:38.018Z,1.40
2018-01-16T17:52:05.827Z,1.40
2018-01-16T17:54:33.544Z,1.53
2018-01-16T17:57:01.454Z,1.48
2018-01-16T17:59:29.386Z,1.48
2018-01-16T18:01:57.234Z,1.44
2018-01-16T18:04:25.143Z,1.46
2018-01-16T18:06:53.253Z,1.48
2018-01-16T18:09:21.210Z,1.47
2018-01-16T18:11:49.127Z,1.51
2018-01-16T18:14:17.086Z,1.47
2018-01-16T18:16:44.791Z,1.53
2018-01-16T18:19:12.620Z,1.56
2018-01-16T18:21:40.630Z,1.63
2018-01-16T18:24:08.559Z,1.65
2018-01-16T18:26:36.353Z,1.68
2018-01-16T18:29:04.082Z,1.71
2018-01-16T18:31:32.087Z,1.90
2018-01-16T18:33:59.944Z,1.74
2018-01-16T18:36:28.295Z,1.58
2018-01-16T18:38:56.104Z,1.47
2018-01-16T18:41:26.366Z,1.48
2018-01-16T18:43:57.994Z,1.57
2018-01-16T18:46:27.057Z,1.56
2018-01-16T18:48:55.517Z,1.63
2018-01-16T18:51:23.383Z,1.79
2018-01-16T18:53:52.260Z,1.82
2018-01-16T18:56:19.992Z,1.95
2018-01-16T18:58:47.845Z,1.78
2018-01-16T19:01:15.703Z,1.72
2018-01-16T19:03:43.840Z,1.61
2018-01-16T19:06:11.713Z,1.64
2018-01-16T19:08:39.584Z,1.58
2018-01-16T19:11:07.479Z,1.57
2018-01-16T19:13:35.342Z,1.61
2018-01-16T19:16:03.462Z,1.63
2018-01-16T19:18:32.728Z,1.60
2018-01-16T19:21:01.524Z,1.54
2018-01-16T19:23:29.807Z,1.59
2018-01-16T19:26:01.400Z,1.60
2018-01-16T19:28:36.140Z,1.60
2018-01-16T19:31:04.601Z,1.53
2018-01-16T19:33:32.359Z,1.53
2018-01-16T19:36:01.534Z,1.55
2018-01-16T19:38:29.373Z,1.55
2018-01-16T19:40:58.958Z,1.45
2018-01-16T19:43:29.398Z,1.53
2018-01-16T19:45:59.837Z,1.57
2018-01-16T19:48:27.679Z,1.52
2018-01-16T19:50:58.869Z,1.53
2018-01-16T19:53:26.665Z,1.61
2018-01-16T19:55:54.777Z,1.56
2018-01-16T19:58:22.692Z,1.53
2018-01-16T20:00:52.513Z,1.58
2018-01-16T20:03:20.655Z,1.64
2018-01-16T20:05:50.570Z,1.51
2018-01-16T20:08:22.113Z,1.52
2018-01-16T20:10:49.880Z,1.56
2018-01-16T20:13:18.150Z,1.56
2018-01-16T20:15:46.130Z,1.59
2018-01-16T20:18:14.137Z,1.60
2018-01-16T20:20:41.895Z,1.60
2018-01-16T20:23:10.773Z,1.61
2018-01-16T20:25:38.550Z,1.55
2018-01-16T20:28:06.409Z,1.59
2018-01-16T20:30:34.313Z,1.60
2018-01-16T20:33:02.346Z,1.63
2018-01-16T20:35:30.511Z,1.67
2018-01-16T20:37:58.380Z,1.69
2018-01-16T20:40:27.451Z,1.67
2018-01-16T20:42:56.893Z,1.74
2018-01-16T20:45:24.781Z,1.70
2018-01-16T20:47:52.594Z,1.67
2018-01-16T20:50:20.858Z,1.66
2018-01-16T20:52:48.777Z,1.66
2018-01-16T20:55:18.900Z,1.66
2018-01-16T20:57:47.674Z,1.69
2018-01-16T21:00:15.557Z,1.64
2018-01-16T21:02:44.665Z,1.75
2018-01-16T21:05:16.131Z,1.70
2018-01-16T21:07:44.182Z,1.73
2018-01-16T21:10:11.930Z,1.77
2018-01-16T21:12:39.637Z,1.70
2018-01-16T21:15:07.384Z,1.68
2018-01-16T21:17:35.127Z,1.66
2018-01-16T21:20:02.970Z,1.67
2018-01-16T21:22:31.324Z,1.68
2018-01-16T21:25:00.870Z,1.95
2018-01-16T21:27:28.615Z,1.69
2018-01-16T21:29:56.369Z,1.60
2018-01-16T21:32:24.098Z,1.58
2018-01-16T21:34:51.879Z,1.65
2018-01-16T21:37:19.752Z,1.59
2018-01-16T21:39:47.416Z,1.56
2018-01-16T21:42:15.076Z,1.61
2018-01-16T21:44:42.842Z,1.66
2018-01-16T21:47:10.606Z,1.66
2018-01-16T21:49:38.396Z,1.67
2018-01-16T21:52:06.094Z,1.65
2018-01-16T21:54:33.846Z,1.63
2018-01-16T21:57:01.570Z,1.64
2018-01-16T21:59:29.444Z,1.65
2018-01-16T22:01:57.134Z,1.80
2018-01-16T22:04:24.918Z,1.65
2018-01-16T22:06:52.696Z,1.72
2018-01-16T22:09:20.417Z,1.68
2018-01-16T22:11:48.176Z,1.69
2018-01-16T22:14:15.944Z,1.69
2018-01-16T22:16:43.652Z,1.93
2018-01-16T22:19:11.399Z,1.78
2018-01-16T22:21:39.056Z,1.80
2018-01-16T22:24:06.769Z,1.79
2018-01-16T22:26:34.572Z,1.74
2018-01-16T22:29:02.322Z,1.71
2018-01-16T22:31:30.086Z,1.78
2018-01-16T22:33:58.718Z,1.80
2018-01-16T22:36:26.449Z,1.85
2018-01-16T22:38:54.204Z,1.74
2018-01-16T22:41:21.922Z,1.70
2018-01-16T22:43:49.712Z,1.72
2018-01-16T22:46:17.477Z,1.77
2018-01-16T22:48:45.186Z,1.74
2018-01-16T22:51:12.972Z,1.75
2018-01-16T22:53:40.771Z,1.68
2018-01-16T22:56:08.611Z,1.66
2018-01-16T22:58:36.381Z,1.68
2018-01-16T23:01:04.110Z,1.74
2018-01-16T23:03:31.896Z,1.78
2018-01-16T23:05:59.652Z,1.77
2018-01-16T23:08:27.438Z,1.78
2018-01-16T23:10:55.321Z,1.79
2018-01-16T23:13:23.108Z,1.71
2018-01-16T23:15:50.800Z,1.57
2018-01-16T23:18:18.516Z,1.61
2018-01-16T23:20:46.285Z,1.64
2018-01-16T23:23:14.010Z,1.64
2018-01-16T23:25:41.680Z,1.64
2018-01-16T23:28:09.417Z,1.52
2018-01-16T23:30:37.078Z,1.63
2018-01-16T23:33:04.797Z,1.60
2018-01-16T23:35:32.460Z,1.60
2018-01-16T23:38:00.125Z,1.58
2018-01-16T23:40:27.866Z,1.66
2018-01-16T23:42:55.619Z,1.58
2018-01-16T23:45:23.295Z,1.63
2018-01-16T23:47:51.029Z,1.60
2018-01-16T23:50:18.721Z,1.59
2018-01-16T23:52:46.588Z,1.54
2018-01-16T23:55:14.279Z,1.53
2018-01-16T23:57:41.939Z,1.56
